sensor_id;sensor_type;location;lat;lon;timestamp;pressure;altitude;pressure_sealevel;temperature;humidity
57572;BME280;44459;43.522;24.470;2023-04-28T00:02:13;100498.72;;;6.80;75.13
57572;BME280;44459;43.522;24.470;2023-04-28T00:04:38;100501.22;;;6.75;75.33
57572;BME280;44459;43.522;24.470;2023-04-28T00:07:04;100510.34;;;6.89;75.49
57572;BME280;44459;43.522;24.470;2023-04-28T00:09:29;100516.50;;;6.91;75.32
57572;BME280;44459;43.522;24.470;2023-04-28T00:11:55;100512.00;;;6.87;75.31
57572;BME280;44459;43.522;24.470;2023-04-28T00:14:20;100526.06;;;6.89;75.51
57572;BME280;44459;43.522;24.470;2023-04-28T00:16:45;100517.38;;;6.90;75.97
57572;BME280;44459;43.522;24.470;2023-04-28T00:19:11;100513.88;;;6.91;76.49
57572;BME280;44459;43.522;24.470;2023-04-28T00:21:36;100524.38;;;6.91;76.14
57572;BME280;44459;43.522;24.470;2023-04-28T00:24:02;100519.44;;;6.69;77.55
57572;BME280;44459;43.522;24.470;2023-04-28T00:26:27;100524.78;;;6.74;77.74
57572;BME280;44459;43.522;24.470;2023-04-28T00:28:53;100530.09;;;6.75;77.30
57572;BME280;44459;43.522;24.470;2023-04-28T00:31:18;100532.72;;;6.75;77.22
57572;BME280;44459;43.522;24.470;2023-04-28T00:33:43;100541.34;;;6.71;77.94
57572;BME280;44459;43.522;24.470;2023-04-28T00:36:09;100542.22;;;6.72;78.29
57572;BME280;44459;43.522;24.470;2023-04-28T00:38:35;100544.66;;;6.64;78.88
57572;BME280;44459;43.522;24.470;2023-04-28T00:41:01;100546.16;;;6.56;78.79
57572;BME280;44459;43.522;24.470;2023-04-28T00:43:27;100542.59;;;6.52;78.32
57572;BME280;44459;43.522;24.470;2023-04-28T00:45:52;100541.53;;;6.46;79.23
57572;BME280;44459;43.522;24.470;2023-04-28T00:48:18;100541.22;;;6.35;79.87
57572;BME280;44459;43.522;24.470;2023-04-28T00:50:45;100538.88;;;6.15;80.46
57572;BME280;44459;43.522;24.470;2023-04-28T00:53:11;100534.97;;;5.99;81.11
57572;BME280;44459;43.522;24.470;2023-04-28T00:55:37;100543.53;;;5.93;81.44
57572;BME280;44459;43.522;24.470;2023-04-28T00:58:04;100546.19;;;5.95;80.72
57572;BME280;44459;43.522;24.470;2023-04-28T01:00:30;100543.56;;;5.95;80.92
57572;BME280;44459;43.522;24.470;2023-04-28T01:02:58;100542.66;;;5.94;81.94
57572;BME280;44459;43.522;24.470;2023-04-28T01:05:25;100552.31;;;5.95;82.24
57572;BME280;44459;43.522;24.470;2023-04-28T01:07:51;100543.41;;;5.90;82.56
57572;BME280;44459;43.522;24.470;2023-04-28T01:10:16;100543.31;;;5.86;82.39
57572;BME280;44459;43.522;24.470;2023-04-28T01:12:42;100544.03;;;5.83;82.00
57572;BME280;44459;43.522;24.470;2023-04-28T01:15:14;100552.84;;;5.85;81.96
57572;BME280;44459;43.522;24.470;2023-04-28T01:17:40;100540.56;;;5.83;83.15
57572;BME280;44459;43.522;24.470;2023-04-28T01:20:06;100556.13;;;5.78;83.64
57572;BME280;44459;43.522;24.470;2023-04-28T01:22:32;100545.34;;;5.68;83.49
57572;BME280;44459;43.522;24.470;2023-04-28T01:24:57;100556.19;;;5.51;83.73
57572;BME280;44459;43.522;24.470;2023-04-28T01:27:24;100557.91;;;5.51;84.14
57572;BME280;44459;43.522;24.470;2023-04-28T01:29:50;100561.19;;;5.45;84.65
57572;BME280;44459;43.522;24.470;2023-04-28T01:32:15;100561.00;;;5.38;85.11
57572;BME280;44459;43.522;24.470;2023-04-28T01:34:41;100546.56;;;5.24;85.14
57572;BME280;44459;43.522;24.470;2023-04-28T01:37:06;100555.16;;;5.20;85.66
57572;BME280;44459;43.522;24.470;2023-04-28T01:39:32;100553.66;;;5.01;86.64
57572;BME280;44459;43.522;24.470;2023-04-28T01:41:57;100550.84;;;4.95;87.19
57572;BME280;44459;43.522;24.470;2023-04-28T01:44:23;100557.00;;;4.97;87.08
57572;BME280;44459;43.522;24.470;2023-04-28T01:46:48;100557.78;;;4.94;87.40
57572;BME280;44459;43.522;24.470;2023-04-28T01:49:13;100560.31;;;4.91;87.67
57572;BME280;44459;43.522;24.470;2023-04-28T01:51:39;100555.81;;;4.87;87.78
57572;BME280;44459;43.522;24.470;2023-04-28T01:54:05;100556.00;;;4.93;88.13
57572;BME280;44459;43.522;24.470;2023-04-28T01:56:31;100550.88;;;4.96;87.67
57572;BME280;44459;43.522;24.470;2023-04-28T01:58:56;100558.94;;;5.02;88.00
57572;BME280;44459;43.522;24.470;2023-04-28T02:01:21;100556.16;;;4.98;88.31
57572;BME280;44459;43.522;24.470;2023-04-28T02:03:47;100558.53;;;4.90;88.18
57572;BME280;44459;43.522;24.470;2023-04-28T02:06:13;100558.31;;;4.84;88.32
57572;BME280;44459;43.522;24.470;2023-04-28T02:08:38;100558.41;;;4.87;88.82
57572;BME280;44459;43.522;24.470;2023-04-28T02:11:04;100556.53;;;4.83;88.87
57572;BME280;44459;43.522;24.470;2023-04-28T02:13:29;100561.72;;;4.82;88.41
57572;BME280;44459;43.522;24.470;2023-04-28T02:15:55;100560.75;;;4.78;88.74
57572;BME280;44459;43.522;24.470;2023-04-28T02:18:20;100561.03;;;4.62;88.83
57572;BME280;44459;43.522;24.470;2023-04-28T02:20:46;100567.13;;;4.61;89.14
57572;BME280;44459;43.522;24.470;2023-04-28T02:23:12;100580.91;;;4.57;89.49
57572;BME280;44459;43.522;24.470;2023-04-28T02:25:37;100572.84;;;4.51;89.76
57572;BME280;44459;43.522;24.470;2023-04-28T02:28:03;100577.09;;;4.47;89.85
57572;BME280;44459;43.522;24.470;2023-04-28T02:30:28;100576.84;;;4.41;89.75
57572;BME280;44459;43.522;24.470;2023-04-28T02:32:53;100588.16;;;4.40;89.94
57572;BME280;44459;43.522;24.470;2023-04-28T02:35:19;100581.97;;;4.38;90.32
57572;BME280;44459;43.522;24.470;2023-04-28T02:37:44;100591.53;;;4.38;90.10
57572;BME280;44459;43.522;24.470;2023-04-28T02:40:11;100596.00;;;4.40;90.08
57572;BME280;44459;43.522;24.470;2023-04-28T02:42:36;100599.59;;;4.44;90.10
57572;BME280;44459;43.522;24.470;2023-04-28T02:45:02;100603.88;;;4.42;89.76
57572;BME280;44459;43.522;24.470;2023-04-28T02:47:27;100606.31;;;4.37;90.14
57572;BME280;44459;43.522;24.470;2023-04-28T02:49:53;100607.19;;;4.38;90.01
57572;BME280;44459;43.522;24.470;2023-04-28T02:52:18;100606.38;;;4.39;89.42
57572;BME280;44459;43.522;24.470;2023-04-28T02:54:43;100612.59;;;4.42;89.97
57572;BME280;44459;43.522;24.470;2023-04-28T02:57:12;100609.91;;;4.41;89.93
57572;BME280;44459;43.522;24.470;2023-04-28T02:59:38;100624.25;;;4.50;89.77
57572;BME280;44459;43.522;24.470;2023-04-28T03:02:03;100625.06;;;4.49;90.15
57572;BME280;44459;43.522;24.470;2023-04-28T03:04:29;100619.72;;;4.46;90.14
57572;BME280;44459;43.522;24.470;2023-04-28T03:06:54;100620.44;;;4.42;90.34
57572;BME280;44459;43.522;24.470;2023-04-28T03:09:20;100623.78;;;4.38;90.97
57572;BME280;44459;43.522;24.470;2023-04-28T03:11:45;100630.22;;;4.48;90.68
57572;BME280;44459;43.522;24.470;2023-04-28T03:14:11;100639.06;;;4.51;90.97
57572;BME280;44459;43.522;24.470;2023-04-28T03:16:37;100636.22;;;4.45;90.91
57572;BME280;44459;43.522;24.470;2023-04-28T03:19:02;100638.44;;;4.35;91.46
57572;BME280;44459;43.522;24.470;2023-04-28T03:21:28;100638.16;;;4.27;92.23
57572;BME280;44459;43.522;24.470;2023-04-28T03:23:53;100643.44;;;4.29;92.95
57572;BME280;44459;43.522;24.470;2023-04-28T03:26:19;100651.38;;;4.30;94.17
57572;BME280;44459;43.522;24.470;2023-04-28T03:28:45;100654.19;;;4.36;93.99
57572;BME280;44459;43.522;24.470;2023-04-28T03:31:10;100658.88;;;4.45;93.77
57572;BME280;44459;43.522;24.470;2023-04-28T03:33:35;100660.25;;;4.35;94.95
57572;BME280;44459;43.522;24.470;2023-04-28T03:36:01;100659.47;;;4.38;96.44
57572;BME280;44459;43.522;24.470;2023-04-28T03:38:26;100660.25;;;4.35;97.63
57572;BME280;44459;43.522;24.470;2023-04-28T03:40:52;100665.81;;;4.44;98.29
57572;BME280;44459;43.522;24.470;2023-04-28T03:43:18;100661.38;;;4.42;98.31
57572;BME280;44459;43.522;24.470;2023-04-28T03:45:43;100671.94;;;4.45;98.66
57572;BME280;44459;43.522;24.470;2023-04-28T03:48:08;100672.28;;;4.54;98.41
57572;BME280;44459;43.522;24.470;2023-04-28T03:50:34;100682.63;;;4.51;98.90
57572;BME280;44459;43.522;24.470;2023-04-28T03:52:59;100692.81;;;4.67;98.07
57572;BME280;44459;43.522;24.470;2023-04-28T03:55:25;100691.50;;;4.78;97.81
57572;BME280;44459;43.522;24.470;2023-04-28T03:57:51;100696.81;;;4.81;97.91
57572;BME280;44459;43.522;24.470;2023-04-28T04:00:17;100705.28;;;4.98;97.06
57572;BME280;44459;43.522;24.470;2023-04-28T04:02:43;100705.47;;;5.04;96.23
57572;BME280;44459;43.522;24.470;2023-04-28T04:05:08;100715.44;;;5.14;95.46
57572;BME280;44459;43.522;24.470;2023-04-28T04:07:34;100717.41;;;5.20;95.95
57572;BME280;44459;43.522;24.470;2023-04-28T04:09:59;100714.06;;;5.24;95.41
57572;BME280;44459;43.522;24.470;2023-04-28T04:12:25;100728.19;;;5.29;95.12
57572;BME280;44459;43.522;24.470;2023-04-28T04:14:50;100723.16;;;5.35;95.39
57572;BME280;44459;43.522;24.470;2023-04-28T04:17:15;100725.75;;;5.35;94.74
57572;BME280;44459;43.522;24.470;2023-04-28T04:19:41;100726.28;;;5.25;94.96
57572;BME280;44459;43.522;24.470;2023-04-28T04:22:06;100726.66;;;5.35;95.38
57572;BME280;44459;43.522;24.470;2023-04-28T04:24:32;100732.00;;;5.38;95.45
57572;BME280;44459;43.522;24.470;2023-04-28T04:26:57;100737.47;;;5.44;95.77
57572;BME280;44459;43.522;24.470;2023-04-28T04:29:23;100727.13;;;5.49;95.37
57572;BME280;44459;43.522;24.470;2023-04-28T04:31:48;100735.31;;;5.58;95.62
57572;BME280;44459;43.522;24.470;2023-04-28T04:34:13;100736.44;;;5.66;96.19
57572;BME280;44459;43.522;24.470;2023-04-28T04:36:39;100727.84;;;5.70;95.57
57572;BME280;44459;43.522;24.470;2023-04-28T04:39:04;100737.69;;;5.77;94.26
57572;BME280;44459;43.522;24.470;2023-04-28T04:41:30;100731.72;;;5.81;93.52
57572;BME280;44459;43.522;24.470;2023-04-28T04:43:55;100722.94;;;5.79;92.38
57572;BME280;44459;43.522;24.470;2023-04-28T04:46:21;100731.00;;;5.85;91.26
57572;BME280;44459;43.522;24.470;2023-04-28T04:48:47;100734.72;;;5.92;91.08
57572;BME280;44459;43.522;24.470;2023-04-28T04:51:12;100741.78;;;5.94;90.48
57572;BME280;44459;43.522;24.470;2023-04-28T04:53:38;100735.88;;;6.00;90.40
57572;BME280;44459;43.522;24.470;2023-04-28T04:56:03;100734.34;;;6.06;90.39
57572;BME280;44459;43.522;24.470;2023-04-28T04:58:29;100741.28;;;6.33;89.93
57572;BME280;44459;43.522;24.470;2023-04-28T05:00:54;100744.66;;;6.57;89.71
57572;BME280;44459;43.522;24.470;2023-04-28T05:03:20;100744.47;;;6.79;88.75
57572;BME280;44459;43.522;24.470;2023-04-28T05:05:46;100743.91;;;6.91;88.55
57572;BME280;44459;43.522;24.470;2023-04-28T05:08:12;100740.88;;;7.07;88.68
57572;BME280;44459;43.522;24.470;2023-04-28T05:10:37;100759.38;;;7.12;88.93
57572;BME280;44459;43.522;24.470;2023-04-28T05:13:03;100762.09;;;7.15;88.49
57572;BME280;44459;43.522;24.470;2023-04-28T05:15:29;100759.97;;;7.33;88.00
57572;BME280;44459;43.522;24.470;2023-04-28T05:17:55;100758.88;;;7.56;87.05
57572;BME280;44459;43.522;24.470;2023-04-28T05:20:21;100755.97;;;7.80;86.50
57572;BME280;44459;43.522;24.470;2023-04-28T05:22:46;100768.03;;;8.06;85.39
57572;BME280;44459;43.522;24.470;2023-04-28T05:25:12;100764.69;;;8.13;84.29
57572;BME280;44459;43.522;24.470;2023-04-28T05:27:37;100764.88;;;8.21;84.21
57572;BME280;44459;43.522;24.470;2023-04-28T05:30:08;100772.63;;;8.15;84.22
57572;BME280;44459;43.522;24.470;2023-04-28T05:32:34;100772.78;;;8.21;84.17
57572;BME280;44459;43.522;24.470;2023-04-28T05:35:00;100776.84;;;8.08;84.77
57572;BME280;44459;43.522;24.470;2023-04-28T05:37:26;100775.69;;;7.97;85.80
57572;BME280;44459;43.522;24.470;2023-04-28T05:39:51;100780.38;;;8.08;85.40
57572;BME280;44459;43.522;24.470;2023-04-28T05:42:17;100792.03;;;8.20;85.82
57572;BME280;44459;43.522;24.470;2023-04-28T05:44:42;100788.69;;;8.27;86.67
57572;BME280;44459;43.522;24.470;2023-04-28T05:47:07;100783.97;;;8.46;86.89
57572;BME280;44459;43.522;24.470;2023-04-28T05:49:33;100788.75;;;8.64;87.08
57572;BME280;44459;43.522;24.470;2023-04-28T05:51:58;100792.44;;;8.72;85.39
57572;BME280;44459;43.522;24.470;2023-04-28T05:54:24;100790.63;;;8.71;84.90
57572;BME280;44459;43.522;24.470;2023-04-28T05:56:50;100800.63;;;8.86;84.83
57572;BME280;44459;43.522;24.470;2023-04-28T05:59:15;100800.78;;;8.93;85.03
57572;BME280;44459;43.522;24.470;2023-04-28T06:01:40;100800.19;;;9.06;83.26
57572;BME280;44459;43.522;24.470;2023-04-28T06:04:06;100800.19;;;9.05;85.11
57572;BME280;44459;43.522;24.470;2023-04-28T06:06:31;100792.47;;;9.14;83.34
57572;BME280;44459;43.522;24.470;2023-04-28T06:08:58;100790.91;;;9.24;83.99
57572;BME280;44459;43.522;24.470;2023-04-28T06:11:23;100801.88;;;9.45;82.94
57572;BME280;44459;43.522;24.470;2023-04-28T06:13:49;100795.16;;;9.62;83.23
57572;BME280;44459;43.522;24.470;2023-04-28T06:16:15;100798.34;;;9.91;82.23
57572;BME280;44459;43.522;24.470;2023-04-28T06:18:41;100791.66;;;10.09;81.58
57572;BME280;44459;43.522;24.470;2023-04-28T06:21:07;100797.44;;;10.40;82.02
57572;BME280;44459;43.522;24.470;2023-04-28T06:23:32;100796.88;;;10.60;81.22
57572;BME280;44459;43.522;24.470;2023-04-28T06:25:58;100799.66;;;10.70;77.44
57572;BME280;44459;43.522;24.470;2023-04-28T06:28:23;100803.06;;;10.63;76.52
57572;BME280;44459;43.522;24.470;2023-04-28T06:30:48;100797.94;;;10.72;77.74
57572;BME280;44459;43.522;24.470;2023-04-28T06:33:14;100794.91;;;11.06;79.47
57572;BME280;44459;43.522;24.470;2023-04-28T06:35:40;100797.78;;;11.26;76.96
57572;BME280;44459;43.522;24.470;2023-04-28T06:38:05;100798.25;;;11.65;77.04
57572;BME280;44459;43.522;24.470;2023-04-28T06:40:31;100803.78;;;11.83;74.79
57572;BME280;44459;43.522;24.470;2023-04-28T06:42:56;100803.84;;;11.92;71.19
57572;BME280;44459;43.522;24.470;2023-04-28T06:45:22;100811.03;;;12.08;73.04
57572;BME280;44459;43.522;24.470;2023-04-28T06:47:47;100811.97;;;12.12;72.33
57572;BME280;44459;43.522;24.470;2023-04-28T06:50:12;100810.28;;;12.20;73.10
57572;BME280;44459;43.522;24.470;2023-04-28T06:52:38;100812.06;;;12.21;70.20
57572;BME280;44459;43.522;24.470;2023-04-28T06:55:08;100817.19;;;12.06;70.23
57572;BME280;44459;43.522;24.470;2023-04-28T06:57:34;100817.22;;;12.09;70.45
57572;BME280;44459;43.522;24.470;2023-04-28T06:59:59;100816.44;;;12.18;70.42
57572;BME280;44459;43.522;24.470;2023-04-28T07:02:24;100819.09;;;12.18;70.83
57572;BME280;44459;43.522;24.470;2023-04-28T07:04:51;100829.66;;;12.15;70.42
57572;BME280;44459;43.522;24.470;2023-04-28T07:07:16;100820.59;;;11.90;71.58
57572;BME280;44459;43.522;24.470;2023-04-28T07:09:42;100831.25;;;11.99;73.25
57572;BME280;44459;43.522;24.470;2023-04-28T07:12:07;100831.16;;;11.90;71.13
57572;BME280;44459;43.522;24.470;2023-04-28T07:14:32;100832.84;;;11.82;71.73
57572;BME280;44459;43.522;24.470;2023-04-28T07:16:58;100830.09;;;11.74;74.21
57572;BME280;44459;43.522;24.470;2023-04-28T07:19:23;100826.69;;;11.84;76.00
57572;BME280;44459;43.522;24.470;2023-04-28T07:21:49;100826.75;;;11.89;75.73
57572;BME280;44459;43.522;24.470;2023-04-28T07:24:14;100834.75;;;11.98;76.23
57572;BME280;44459;43.522;24.470;2023-04-28T07:26:40;100826.03;;;12.08;75.10
57572;BME280;44459;43.522;24.470;2023-04-28T07:29:05;100830.53;;;12.17;73.75
57572;BME280;44459;43.522;24.470;2023-04-28T07:31:33;100821.91;;;12.39;70.74
57572;BME280;44459;43.522;24.470;2023-04-28T07:33:59;100825.53;;;12.48;73.57
57572;BME280;44459;43.522;24.470;2023-04-28T07:36:24;100824.03;;;12.91;73.81
57572;BME280;44459;43.522;24.470;2023-04-28T07:38:50;100816.31;;;13.28;74.56
57572;BME280;44459;43.522;24.470;2023-04-28T07:41:16;100827.94;;;13.60;71.34
57572;BME280;44459;43.522;24.470;2023-04-28T07:43:41;100821.81;;;13.82;70.77
57572;BME280;44459;43.522;24.470;2023-04-28T07:46:07;100820.06;;;13.87;69.33
57572;BME280;44459;43.522;24.470;2023-04-28T07:48:33;100813.00;;;14.04;67.52
57572;BME280;44459;43.522;24.470;2023-04-28T07:50:59;100822.78;;;14.30;66.63
57572;BME280;44459;43.522;24.470;2023-04-28T07:53:24;100817.47;;;14.51;70.76
57572;BME280;44459;43.522;24.470;2023-04-28T07:55:50;100813.00;;;14.30;65.49
57572;BME280;44459;43.522;24.470;2023-04-28T07:58:15;100815.69;;;14.23;67.06
57572;BME280;44459;43.522;24.470;2023-04-28T08:00:41;100824.53;;;14.31;66.22
57572;BME280;44459;43.522;24.470;2023-04-28T08:03:06;100813.91;;;14.29;66.47
57572;BME280;44459;43.522;24.470;2023-04-28T08:05:32;100807.72;;;14.15;67.81
57572;BME280;44459;43.522;24.470;2023-04-28T08:07:58;100811.25;;;14.16;67.87
57572;BME280;44459;43.522;24.470;2023-04-28T08:10:23;100810.34;;;14.27;67.05
57572;BME280;44459;43.522;24.470;2023-04-28T08:12:50;100805.88;;;13.88;65.78
57572;BME280;44459;43.522;24.470;2023-04-28T08:15:16;100800.56;;;13.73;66.79
57572;BME280;44459;43.522;24.470;2023-04-28T08:17:41;100805.91;;;13.94;67.96
57572;BME280;44459;43.522;24.470;2023-04-28T08:20:07;100805.88;;;13.70;67.24
57572;BME280;44459;43.522;24.470;2023-04-28T08:22:33;100798.84;;;13.95;69.29
57572;BME280;44459;43.522;24.470;2023-04-28T08:24:58;100802.34;;;13.79;68.05
57572;BME280;44459;43.522;24.470;2023-04-28T08:27:24;100805.94;;;14.08;69.04
57572;BME280;44459;43.522;24.470;2023-04-28T08:29:50;100793.56;;;14.52;66.20
57572;BME280;44459;43.522;24.470;2023-04-28T08:32:16;100794.41;;;14.83;64.60
57572;BME280;44459;43.522;24.470;2023-04-28T08:34:41;100790.81;;;15.01;63.39
57572;BME280;44459;43.522;24.470;2023-04-28T08:37:06;100793.41;;;15.15;64.61
57572;BME280;44459;43.522;24.470;2023-04-28T08:39:32;100790.66;;;15.51;61.55
57572;BME280;44459;43.522;24.470;2023-04-28T08:42:02;100783.41;;;15.73;62.73
57572;BME280;44459;43.522;24.470;2023-04-28T08:44:35;100788.63;;;15.86;63.42
57572;BME280;44459;43.522;24.470;2023-04-28T08:47:02;100774.28;;;16.07;62.40
57572;BME280;44459;43.522;24.470;2023-04-28T08:49:33;100782.28;;;16.07;60.88
57572;BME280;44459;43.522;24.470;2023-04-28T08:52:00;100783.16;;;16.07;59.65
57572;BME280;44459;43.522;24.470;2023-04-28T08:54:35;100781.41;;;16.08;59.88
57572;BME280;44459;43.522;24.470;2023-04-28T08:57:00;100768.22;;;15.93;57.58
57572;BME280;44459;43.522;24.470;2023-04-28T08:59:26;100778.94;;;15.82;60.91
57572;BME280;44459;43.522;24.470;2023-04-28T09:01:52;100777.13;;;15.83;58.66
57572;BME280;44459;43.522;24.470;2023-04-28T09:04:17;100773.91;;;15.19;59.09
57572;BME280;44459;43.522;24.470;2023-04-28T09:06:43;100766.94;;;14.75;61.41
57572;BME280;44459;43.522;24.470;2023-04-28T09:09:25;100769.66;;;14.45;61.91
57572;BME280;44459;43.522;24.470;2023-04-28T09:11:59;100757.22;;;14.74;61.21
57572;BME280;44459;43.522;24.470;2023-04-28T09:14:26;100757.00;;;15.29;67.65
57572;BME280;44459;43.522;24.470;2023-04-28T09:16:52;100756.97;;;15.35;59.71
57572;BME280;44459;43.522;24.470;2023-04-28T09:19:17;100748.97;;;15.50;61.76
57572;BME280;44459;43.522;24.470;2023-04-28T09:21:56;100754.16;;;15.70;60.08
57572;BME280;44459;43.522;24.470;2023-04-28T09:24:27;100755.00;;;15.78;59.12
57572;BME280;44459;43.522;24.470;2023-04-28T09:26:53;100745.34;;;15.62;58.70
57572;BME280;44459;43.522;24.470;2023-04-28T09:29:19;100746.38;;;15.29;59.36
57572;BME280;44459;43.522;24.470;2023-04-28T09:31:44;100745.47;;;15.31;60.78
57572;BME280;44459;43.522;24.470;2023-04-28T09:34:10;100740.97;;;15.51;60.31
57572;BME280;44459;43.522;24.470;2023-04-28T09:36:36;100744.47;;;15.61;60.74
57572;BME280;44459;43.522;24.470;2023-04-28T09:39:02;100732.06;;;15.57;59.02
57572;BME280;44459;43.522;24.470;2023-04-28T09:41:41;100740.19;;;15.25;60.82
57572;BME280;44459;43.522;24.470;2023-04-28T09:46:35;100734.84;;;15.28;64.03
57572;BME280;44459;43.522;24.470;2023-04-28T09:49:01;100734.88;;;15.22;58.29
57572;BME280;44459;43.522;24.470;2023-04-28T09:51:27;100731.34;;;15.20;60.42
57572;BME280;44459;43.522;24.470;2023-04-28T09:53:54;100728.59;;;15.35;60.00
57572;BME280;44459;43.522;24.470;2023-04-28T09:56:27;100730.25;;;15.62;58.55
57572;BME280;44459;43.522;24.470;2023-04-28T09:58:53;100720.59;;;15.44;58.57
57572;BME280;44459;43.522;24.470;2023-04-28T10:01:19;100734.09;;;14.99;57.01
57572;BME280;44459;43.522;24.470;2023-04-28T10:03:44;100712.81;;;15.00;56.18
57572;BME280;44459;43.522;24.470;2023-04-28T10:06:10;100710.97;;;15.18;57.06
57572;BME280;44459;43.522;24.470;2023-04-28T10:08:36;100714.63;;;14.89;57.28
57572;BME280;44459;43.522;24.470;2023-04-28T10:11:02;100703.00;;;15.10;56.60
57572;BME280;44459;43.522;24.470;2023-04-28T10:13:27;100710.19;;;14.91;53.91
57572;BME280;44459;43.522;24.470;2023-04-28T10:15:53;100710.31;;;14.61;55.40
57572;BME280;44459;43.522;24.470;2023-04-28T10:18:21;100703.22;;;14.55;56.22
57572;BME280;44459;43.522;24.470;2023-04-28T10:20:48;100708.59;;;14.19;53.38
57572;BME280;44459;43.522;24.470;2023-04-28T10:26:11;100713.03;;;14.37;51.58
57572;BME280;44459;43.522;24.470;2023-04-28T10:28:43;100704.13;;;14.30;53.03
57572;BME280;44459;43.522;24.470;2023-04-28T10:31:11;100701.41;;;14.65;55.73
57572;BME280;44459;43.522;24.470;2023-04-28T10:33:37;100698.66;;;14.95;52.63
57572;BME280;44459;43.522;24.470;2023-04-28T10:36:03;100695.75;;;15.38;49.98
57572;BME280;44459;43.522;24.470;2023-04-28T10:38:30;100684.22;;;15.42;46.98
57572;BME280;44459;43.522;24.470;2023-04-28T10:40:55;100677.13;;;15.44;49.36
57572;BME280;44459;43.522;24.470;2023-04-28T10:56:19;100681.13;;;14.20;54.13
57572;BME280;44459;43.522;24.470;2023-04-28T10:58:55;100674.03;;;14.31;52.85
57572;BME280;44459;43.522;24.470;2023-04-28T11:06:40;100676.72;;;14.07;54.47
57572;BME280;44459;43.522;24.470;2023-04-28T11:16:56;100666.94;;;14.50;54.10
57572;BME280;44459;43.522;24.470;2023-04-28T11:21:56;100668.66;;;14.71;53.36
57572;BME280;44459;43.522;24.470;2023-04-28T11:24:23;100659.91;;;14.37;52.14
57572;BME280;44459;43.522;24.470;2023-04-28T11:26:53;100654.53;;;14.31;53.60
57572;BME280;44459;43.522;24.470;2023-04-28T11:29:31;100656.25;;;14.67;51.52
57572;BME280;44459;43.522;24.470;2023-04-28T11:31:57;100650.81;;;14.94;48.46
57572;BME280;44459;43.522;24.470;2023-04-28T11:34:24;100651.44;;;15.40;48.54
57572;BME280;44459;43.522;24.470;2023-04-28T11:36:49;100661.00;;;15.67;47.72
57572;BME280;44459;43.522;24.470;2023-04-28T11:39:15;100646.97;;;15.49;47.02
57572;BME280;44459;43.522;24.470;2023-04-28T11:41:44;100655.78;;;15.53;46.83
57572;BME280;44459;43.522;24.470;2023-04-28T11:44:14;100647.84;;;15.42;48.30
57572;BME280;44459;43.522;24.470;2023-04-28T11:46:47;100643.53;;;15.25;47.78
57572;BME280;44459;43.522;24.470;2023-04-28T11:49:23;100637.28;;;15.36;47.91
57572;BME280;44459;43.522;24.470;2023-04-28T11:51:50;100649.78;;;15.19;49.05
57572;BME280;44459;43.522;24.470;2023-04-28T11:54:27;100643.38;;;15.52;49.68
57572;BME280;44459;43.522;24.470;2023-04-28T11:56:54;100639.63;;;15.77;49.29
57572;BME280;44459;43.522;24.470;2023-04-28T11:59:38;100626.97;;;16.00;49.04
57572;BME280;44459;43.522;24.470;2023-04-28T12:02:05;100627.06;;;15.96;46.37
57572;BME280;44459;43.522;24.470;2023-04-28T12:04:31;100626.00;;;16.10;49.84
57572;BME280;44459;43.522;24.470;2023-04-28T12:07:03;100619.00;;;16.03;45.46
57572;BME280;44459;43.522;24.470;2023-04-28T12:09:30;100625.06;;;16.15;46.63
57572;BME280;44459;43.522;24.470;2023-04-28T12:12:00;100614.69;;;15.87;49.81
57572;BME280;44459;43.522;24.470;2023-04-28T12:14:27;100618.69;;;16.29;47.57
57572;BME280;44459;43.522;24.470;2023-04-28T12:16:53;100617.75;;;16.35;46.43
57572;BME280;44459;43.522;24.470;2023-04-28T12:19:19;100614.41;;;16.16;46.49
57572;BME280;44459;43.522;24.470;2023-04-28T12:22:07;100613.06;;;15.70;46.18
57572;BME280;44459;43.522;24.470;2023-04-28T12:24:33;100599.94;;;15.48;47.18
57572;BME280;44459;43.522;24.470;2023-04-28T12:27:19;100601.06;;;15.16;45.19
57572;BME280;44459;43.522;24.470;2023-04-28T12:29:49;100598.50;;;15.02;46.14
57572;BME280;44459;43.522;24.470;2023-04-28T12:32:16;100591.03;;;15.52;46.39
57572;BME280;44459;43.522;24.470;2023-04-28T12:34:44;100596.84;;;15.98;45.15
57572;BME280;44459;43.522;24.470;2023-04-28T12:37:10;100593.75;;;16.35;47.03
57572;BME280;44459;43.522;24.470;2023-04-28T12:39:38;100584.34;;;16.06;43.56
57572;BME280;44459;43.522;24.470;2023-04-28T12:42:04;100598.34;;;16.24;45.88
57572;BME280;44459;43.522;24.470;2023-04-28T12:44:34;100596.81;;;16.01;45.30
57572;BME280;44459;43.522;24.470;2023-04-28T12:47:05;100590.22;;;16.36;45.41
57572;BME280;44459;43.522;24.470;2023-04-28T12:49:30;100587.22;;;16.63;42.97
57572;BME280;44459;43.522;24.470;2023-04-28T12:51:56;100580.03;;;16.70;43.12
57572;BME280;44459;43.522;24.470;2023-04-28T12:54:23;100575.03;;;16.44;40.87
57572;BME280;44459;43.522;24.470;2023-04-28T12:56:48;100570.09;;;16.07;42.24
57572;BME280;44459;43.522;24.470;2023-04-28T12:59:14;100567.50;;;16.01;44.61
57572;BME280;44459;43.522;24.470;2023-04-28T13:01:39;100565.59;;;16.16;42.73
57572;BME280;44459;43.522;24.470;2023-04-28T13:04:05;100559.41;;;16.14;44.25
57572;BME280;44459;43.522;24.470;2023-04-28T13:06:31;100559.03;;;16.44;40.99
57572;BME280;44459;43.522;24.470;2023-04-28T13:08:56;100566.22;;;16.37;44.14
57572;BME280;44459;43.522;24.470;2023-04-28T13:11:22;100566.22;;;16.36;44.78
57572;BME280;44459;43.522;24.470;2023-04-28T13:13:51;100565.81;;;15.94;44.22
57572;BME280;44459;43.522;24.470;2023-04-28T13:16:17;100557.06;;;15.82;46.60